createdAt,value
2023-05-24T00:08:23.907Z,19.09
2023-05-24T00:18:32.285Z,18.99
2023-05-24T00:28:37.764Z,18.85
2023-05-24T00:38:43.082Z,18.39
2023-05-24T00:48:46.936Z,18.22
2023-05-24T00:58:54.990Z,18.28
2023-05-24T01:09:26.648Z,18.14
2023-05-24T01:20:03.309Z,18.15
2023-05-24T01:30:07.824Z,17.98
2023-05-24T01:40:14.684Z,17.84
2023-05-24T01:50:27.158Z,17.79
2023-05-24T02:00:35.699Z,17.72
2023-05-24T02:10:44.888Z,17.72
2023-05-24T02:20:50.289Z,17.66
2023-05-24T02:30:53.938Z,17.56
2023-05-24T02:41:00.996Z,17.61
2023-05-24T02:51:04.849Z,17.82
2023-05-24T03:01:08.836Z,17.87
2023-05-24T03:11:13.099Z,17.79
2023-05-24T03:21:21.101Z,18.13
2023-05-24T03:31:28.661Z,18.59
2023-05-24T03:41:34.585Z,18.92
2023-05-24T03:51:38.558Z,19.06
2023-05-24T04:01:42.259Z,19.04
2023-05-24T04:11:45.887Z,19.22
2023-05-24T04:21:50.465Z,19.39
2023-05-24T04:31:56.615Z,19.51
2023-05-24T04:42:01.480Z,20.16
2023-05-24T04:52:05.501Z,20.56
2023-05-24T05:02:09.096Z,21.74
2023-05-24T05:12:14.574Z,22.53
2023-05-24T05:22:18.263Z,23.60
2023-05-24T05:32:23.892Z,24.62
2023-05-24T05:42:27.582Z,25.48
2023-05-24T05:52:32.402Z,26.89
2023-05-24T06:02:36.195Z,27.55
2023-05-24T06:12:40.831Z,27.60
2023-05-24T06:22:45.836Z,27.87
2023-05-24T06:32:49.537Z,28.09
2023-05-24T06:42:58.887Z,27.89
2023-05-24T06:53:07.722Z,28.05
2023-05-24T07:03:12.983Z,28.34
2023-05-24T07:13:18.457Z,28.14
2023-05-24T07:23:22.002Z,28.69
2023-05-24T07:33:25.654Z,29.17
2023-05-24T07:43:33.011Z,29.96
2023-05-24T07:53:38.074Z,29.66
2023-05-24T08:03:41.833Z,29.32
2023-05-24T08:13:47.539Z,28.77
2023-05-24T08:23:51.405Z,28.51
2023-05-24T08:33:56.460Z,28.31
2023-05-24T08:44:02.796Z,28.37
2023-05-24T08:54:07.778Z,28.49
2023-05-24T09:04:12.084Z,28.67
2023-05-24T09:14:16.084Z,29.22
2023-05-24T09:24:20.832Z,30.22
2023-05-24T09:34:24.446Z,30.82
2023-05-24T09:44:30.688Z,31.18
2023-05-24T09:54:36.583Z,31.44
2023-05-24T10:04:42.522Z,31.39
2023-05-24T10:14:46.453Z,31.59
2023-05-24T10:24:55.682Z,31.52
2023-05-24T10:35:00.863Z,31.12
2023-05-24T10:45:36.073Z,30.17
2023-05-24T10:56:09.855Z,28.89
2023-05-24T11:06:15.633Z,29.23
2023-05-24T11:16:35.750Z,28.96
2023-05-24T11:26:41.118Z,29.00
2023-05-24T11:36:46.393Z,27.99
2023-05-24T11:47:03.582Z,27.27
2023-05-24T11:57:07.267Z,26.78
2023-05-24T12:07:13.270Z,26.83
2023-05-24T12:17:18.697Z,27.69
2023-05-24T12:27:35.002Z,27.56
2023-05-24T12:37:40.375Z,27.29
2023-05-24T12:47:45.155Z,27.29
2023-05-24T12:57:54.293Z,27.73
2023-05-24T13:07:58.315Z,28.15
2023-05-24T13:18:03.753Z,28.12
2023-05-24T13:28:07.608Z,28.00
2023-05-24T13:38:11.317Z,27.90
2023-05-24T13:48:15.389Z,28.14
2023-05-24T13:58:25.474Z,28.04
2023-05-24T14:08:35.959Z,28.02
2023-05-24T14:19:11.416Z,27.81
2023-05-24T14:42:11.248Z,27.40
2023-05-24T14:52:26.119Z,27.20
2023-05-24T15:02:31.508Z,27.08
2023-05-24T15:12:35.822Z,26.68
2023-05-24T15:22:39.756Z,26.49
2023-05-24T15:32:43.694Z,26.34
2023-05-24T15:42:47.325Z,26.55
2023-05-24T15:52:51.147Z,26.56
2023-05-24T16:02:56.129Z,26.53
2023-05-24T16:13:00.013Z,26.39
2023-05-24T16:23:03.995Z,26.31
2023-05-24T16:33:07.943Z,26.22
2023-05-24T16:43:11.968Z,26.03
2023-05-24T16:53:16.060Z,25.85
2023-05-24T17:13:31.639Z,25.86
2023-05-24T17:23:40.802Z,25.63
2023-05-24T17:33:44.873Z,25.16
2023-05-24T17:43:50.215Z,24.93
2023-05-24T17:53:54.341Z,24.61
2023-05-24T18:03:58.299Z,24.35
2023-05-24T18:14:04.097Z,24.04
2023-05-24T18:24:08.007Z,23.78
2023-05-24T18:34:12.956Z,23.53
2023-05-24T18:44:20.299Z,23.27
2023-05-24T18:54:30.687Z,23.18
2023-05-24T19:04:34.708Z,23.14
2023-05-24T19:14:40.333Z,22.99
2023-05-24T19:47:14.403Z,22.44
2023-05-24T19:57:18.377Z,22.39
2023-05-24T20:07:22.154Z,22.38
2023-05-24T20:17:25.852Z,22.21
2023-05-24T20:27:30.234Z,22.01
2023-05-24T20:37:34.047Z,21.73
2023-05-24T20:47:42.287Z,21.57
2023-05-24T20:57:48.072Z,21.44
2023-05-24T21:07:59.209Z,21.47
2023-05-24T21:18:04.729Z,21.52
2023-05-24T21:28:08.559Z,21.47
2023-05-24T21:38:12.182Z,21.45
2023-05-24T21:48:15.719Z,21.34
2023-05-24T21:58:19.486Z,21.31
2023-05-24T22:08:23.159Z,21.27
2023-05-24T22:18:28.550Z,21.28
2023-05-24T22:29:00.979Z,21.31
2023-05-24T22:39:05.515Z,21.25
2023-05-24T22:49:13.378Z,21.26
2023-05-24T22:59:17.089Z,21.16
2023-05-24T23:09:35.099Z,21.04
2023-05-24T23:19:43.358Z,20.95
2023-05-24T23:29:47.256Z,20.86
2023-05-24T23:39:51.027Z,20.76
2023-05-24T23:49:54.741Z,20.52
2023-05-24T23:59:58.338Z,20.23
